TimeCST,TemperatureF,Dew PointF,Humidity,Sea Level PressureIn,VisibilityMPH,Wind Direction,Wind SpeedMPH,Gust SpeedMPH,PrecipitationIn,Events,Conditions,WindDirDegrees,DateUTC
12:52 AM,39.0,27.0,62,30.41,10.0,SSE,5.8,-,N/A,,Clear,160,2012-11-14 06:52:00
1:52 AM,39.0,28.0,65,30.41,10.0,SSE,6.9,-,N/A,,Clear,150,2012-11-14 07:52:00
2:52 AM,39.0,27.0,62,30.40,10.0,SE,8.1,-,N/A,,Clear,140,2012-11-14 08:52:00
3:52 AM,35.1,27.0,72,30.40,10.0,SSE,8.1,-,N/A,,Clear,150,2012-11-14 09:52:00
4:52 AM,34.0,26.1,73,30.40,10.0,South,5.8,-,N/A,,Clear,180,2012-11-14 10:52:00
5:52 AM,33.1,26.1,75,30.42,10.0,SE,6.9,-,N/A,,Clear,140,2012-11-14 11:52:00
6:52 AM,33.1,26.1,75,30.43,10.0,SE,10.4,-,N/A,,Clear,140,2012-11-14 12:52:00
7:52 AM,37.0,28.0,70,30.45,10.0,SSE,8.1,-,N/A,,Clear,160,2012-11-14 13:52:00
8:52 AM,41.0,28.0,60,30.45,10.0,SSE,9.2,-,N/A,,Clear,160,2012-11-14 14:52:00
9:52 AM,45.0,28.9,53,30.45,10.0,SSE,6.9,-,N/A,,Clear,160,2012-11-14 15:52:00
10:52 AM,48.9,28.0,44,30.44,10.0,South,5.8,-,N/A,,Clear,180,2012-11-14 16:52:00
11:52 AM,52.0,26.1,37,30.40,10.0,WSW,3.5,-,N/A,,Clear,240,2012-11-14 17:52:00
12:52 PM,53.1,25.0,34,30.37,10.0,Calm,Calm,-,N/A,,Clear,0,2012-11-14 18:52:00
1:52 PM,53.1,24.1,32,30.35,10.0,Calm,Calm,-,N/A,,Clear,0,2012-11-14 19:52:00
2:52 PM,53.1,24.1,32,30.34,10.0,Calm,Calm,-,N/A,,Clear,0,2012-11-14 20:52:00
3:52 PM,53.1,25.0,34,30.34,10.0,WSW,4.6,-,N/A,,Clear,240,2012-11-14 21:52:00
4:52 PM,50.0,27.0,41,30.32,10.0,Calm,Calm,-,N/A,,Clear,0,2012-11-14 22:52:00
5:52 PM,39.9,28.9,65,30.33,10.0,Calm,Calm,-,N/A,,Clear,0,2012-11-14 23:52:00
6:52 PM,37.0,27.0,67,30.35,10.0,SE,4.6,-,N/A,,Clear,130,2012-11-15 00:52:00
7:52 PM,37.0,27.0,67,30.33,10.0,SE,6.9,-,N/A,,Clear,130,2012-11-15 01:52:00
8:52 PM,39.0,26.1,60,30.32,10.0,SE,5.8,-,N/A,,Clear,140,2012-11-15 02:52:00
9:52 PM,36.0,26.1,67,30.32,10.0,SE,5.8,-,N/A,,Clear,140,2012-11-15 03:52:00
10:52 PM,36.0,26.1,67,30.31,10.0,SSE,6.9,-,N/A,,Clear,150,2012-11-15 04:52:00
11:52 PM,36.0,26.1,67,30.32,10.0,SSE,6.9,-,N/A,,Clear,150,2012-11-15 05:52:00